createdAt,value
2019-03-01T00:00:11.977Z,52.94
2019-03-01T00:01:18.414Z,53.33
2019-03-01T00:02:09.073Z,53.25
2019-03-01T00:02:59.858Z,53.39
2019-03-01T00:04:10.626Z,52.89
2019-03-01T00:05:27.331Z,52.86
2019-03-01T00:06:24.122Z,53.38
2019-03-01T00:07:55.143Z,52.92
2019-03-01T00:09:38.919Z,53.01
2019-03-01T00:11:32.628Z,52.80
2019-03-01T00:13:09.221Z,53.19
2019-03-01T00:14:31.914Z,52.77
2019-03-01T00:16:10.402Z,52.66
2019-03-01T00:17:36.178Z,53.09
2019-03-01T00:19:04.570Z,52.93
2019-03-01T00:20:35.806Z,52.90
2019-03-01T00:21:38.065Z,52.82
2019-03-01T00:23:19.746Z,52.98
2019-03-01T00:24:58.875Z,53.85
2019-03-01T00:26:08.673Z,53.55
2019-03-01T00:27:09.498Z,53.18
2019-03-01T00:28:31.222Z,53.00
2019-03-01T00:29:59.377Z,53.43
2019-03-01T00:31:22.891Z,53.65
2019-03-01T00:32:42.546Z,53.24
2019-03-01T00:33:43.456Z,53.35
2019-03-01T00:35:09.168Z,53.84
2019-03-01T00:36:45.119Z,53.73
2019-03-01T00:38:16.052Z,53.19
2019-03-01T00:39:53.068Z,53.34
2019-03-01T00:41:08.497Z,53.70
2019-03-01T00:42:37.995Z,53.95
2019-03-01T00:44:13.974Z,54.15
2019-03-01T00:45:04.336Z,53.93
2019-03-01T00:45:54.386Z,54.09
2019-03-01T00:46:45.220Z,54.21
2019-03-01T00:47:35.479Z,54.28
2019-03-01T00:48:26.257Z,54.42
2019-03-01T00:49:16.391Z,55.00
2019-03-01T00:50:06.769Z,54.41
2019-03-01T00:50:56.877Z,54.53
2019-03-01T00:51:47.117Z,54.65
2019-03-01T00:52:37.139Z,54.93
2019-03-01T00:53:27.685Z,55.00
2019-03-01T00:54:18.482Z,54.83
2019-03-01T00:55:10.350Z,54.80
2019-03-01T00:56:00.680Z,54.61
2019-03-01T00:56:51.195Z,54.90
2019-03-01T00:57:42.218Z,54.80
2019-03-01T00:58:33.778Z,54.90
2019-03-01T00:59:24.852Z,54.90
2019-03-01T01:00:21.151Z,55.11
2019-03-01T01:01:11.515Z,55.23
2019-03-01T01:02:01.867Z,55.14
2019-03-01T01:02:51.926Z,55.81
2019-03-01T01:03:42.367Z,55.63
2019-03-01T01:04:32.630Z,55.39
2019-03-01T01:05:22.943Z,55.38
2019-03-01T01:06:13.571Z,55.30
2019-03-01T01:07:04.916Z,55.58
2019-03-01T01:07:55.770Z,56.16
2019-03-01T01:08:46.668Z,56.14
2019-03-01T01:09:36.858Z,55.82
2019-03-01T01:10:26.931Z,55.60
2019-03-01T01:11:17.525Z,55.62
2019-03-01T01:12:07.855Z,55.73
2019-03-01T01:12:59.247Z,56.20
2019-03-01T01:13:49.921Z,56.77
2019-03-01T01:14:40.646Z,55.99
2019-03-01T01:15:30.471Z,55.94
2019-03-01T01:16:20.994Z,55.74
2019-03-01T01:17:11.219Z,55.65
2019-03-01T01:18:01.562Z,55.86
2019-03-01T01:18:52.652Z,56.03
2019-03-01T01:19:43.641Z,55.94
2019-03-01T01:20:34.318Z,55.89
2019-03-01T01:21:24.861Z,56.19
2019-03-01T01:22:15.183Z,56.07
2019-03-01T01:23:05.181Z,56.00
2019-03-01T01:23:55.136Z,56.08
2019-03-01T01:24:45.994Z,56.43
2019-03-01T01:25:36.728Z,56.31
2019-03-01T01:26:26.940Z,56.15
2019-03-01T01:27:17.161Z,56.64
2019-03-01T01:28:07.201Z,56.41
2019-03-01T01:28:57.787Z,56.37
2019-03-01T01:29:48.319Z,56.41
2019-03-01T01:30:38.441Z,56.58
2019-03-01T01:31:28.502Z,56.61
2019-03-01T01:32:19.181Z,56.65
2019-03-01T01:33:09.722Z,57.29
2019-03-01T01:33:59.873Z,57.18
2019-03-01T01:34:50.471Z,57.26
2019-03-01T01:35:40.902Z,57.27
2019-03-01T01:36:31.491Z,57.45
2019-03-01T01:37:21.918Z,57.58
2019-03-01T01:38:12.611Z,57.33
2019-03-01T01:39:02.900Z,57.50
2019-03-01T01:39:53.965Z,58.35
2019-03-01T01:40:45.063Z,58.89
2019-03-01T01:41:36.314Z,58.62
2019-03-01T01:42:27.382Z,58.52
2019-03-01T01:43:17.902Z,58.51
2019-03-01T01:44:08.143Z,58.45
2019-03-01T01:44:58.357Z,58.40
2019-03-01T01:45:49.456Z,58.65
2019-03-01T01:46:40.030Z,58.65
2019-03-01T01:47:30.451Z,58.86
2019-03-01T01:48:20.585Z,58.57
2019-03-01T01:49:10.981Z,59.22
2019-03-01T01:50:01.387Z,58.97
2019-03-01T01:50:51.967Z,59.01
2019-03-01T01:51:42.328Z,59.13
2019-03-01T01:52:32.441Z,59.16
2019-03-01T01:53:23.238Z,59.24
2019-03-01T01:54:13.663Z,59.55
2019-03-01T01:55:04.194Z,59.50
2019-03-01T01:55:54.444Z,59.65
2019-03-01T01:56:44.495Z,59.57
2019-03-01T01:57:34.826Z,59.57
2019-03-01T01:58:25.927Z,59.59
2019-03-01T01:59:15.889Z,59.60
2019-03-01T02:00:06.771Z,59.57
2019-03-01T02:00:57.390Z,59.72
2019-03-01T02:01:49.078Z,59.50
2019-03-01T02:02:40.545Z,59.56
2019-03-01T02:03:30.951Z,59.31
2019-03-01T02:04:21.705Z,59.75
2019-03-01T02:05:12.413Z,59.50
2019-03-01T02:06:02.761Z,59.40
2019-03-01T02:06:52.848Z,59.17
2019-03-01T02:07:43.082Z,59.74
2019-03-01T02:08:33.329Z,59.68
2019-03-01T02:09:24.658Z,59.29
2019-03-01T02:10:15.491Z,59.74
2019-03-01T02:11:06.683Z,59.87
2019-03-01T02:11:56.848Z,59.38
2019-03-01T02:12:46.873Z,59.00
2019-03-01T02:13:37.326Z,59.10
2019-03-01T02:14:27.228Z,58.81
2019-03-01T02:15:18.314Z,58.87
2019-03-01T02:16:08.679Z,58.66
2019-03-01T02:16:58.718Z,58.60
2019-03-01T02:17:49.462Z,58.83
2019-03-01T02:18:39.807Z,58.87
2019-03-01T02:19:30.337Z,58.73
2019-03-01T02:20:20.531Z,58.62
2019-03-01T02:21:11.111Z,58.71
2019-03-01T02:22:02.176Z,58.61
2019-03-01T02:22:52.935Z,58.51
2019-03-01T02:23:43.439Z,58.55
2019-03-01T02:24:33.851Z,58.36
2019-03-01T02:25:24.235Z,58.33
2019-03-01T02:26:14.666Z,58.21
2019-03-01T02:27:22.021Z,58.43
2019-03-01T02:28:12.325Z,58.72
2019-03-01T02:29:02.544Z,58.81
2019-03-01T02:29:53.067Z,58.46
2019-03-01T02:30:43.137Z,58.41
2019-03-01T02:31:33.301Z,58.14
2019-03-01T02:32:33.384Z,58.21
2019-03-01T02:33:23.706Z,58.30
2019-03-01T02:34:13.902Z,58.03
2019-03-01T02:35:05.044Z,57.97
2019-03-01T02:35:55.924Z,57.94
2019-03-01T02:36:46.169Z,57.94
2019-03-01T02:37:36.387Z,57.98
2019-03-01T02:38:26.604Z,58.12
2019-03-01T02:39:16.808Z,58.21
2019-03-01T02:40:07.822Z,58.20
2019-03-01T02:40:58.216Z,58.42
2019-03-01T02:41:48.173Z,58.44
2019-03-01T02:42:38.646Z,58.38
2019-03-01T02:43:28.814Z,58.23
2019-03-01T02:44:19.090Z,58.52
2019-03-01T02:45:11.590Z,58.26
2019-03-01T02:46:02.042Z,58.11
2019-03-01T02:46:52.210Z,58.15
2019-03-01T02:47:42.823Z,58.36
2019-03-01T02:48:33.083Z,58.28
2019-03-01T02:49:24.115Z,58.31
2019-03-01T02:50:15.385Z,58.28
2019-03-01T02:51:05.379Z,58.26
2019-03-01T02:51:56.214Z,58.18
2019-03-01T02:52:46.396Z,58.19
2019-03-01T02:53:36.904Z,58.37
2019-03-01T02:54:27.025Z,58.66
2019-03-01T02:55:17.379Z,58.37
2019-03-01T02:56:07.445Z,58.28
2019-03-01T02:56:58.576Z,58.56
2019-03-01T02:57:49.699Z,58.71
2019-03-01T02:58:40.055Z,58.60
2019-03-01T02:59:30.830Z,58.87
2019-03-01T03:00:23.095Z,59.02
2019-03-01T03:01:13.134Z,58.77
2019-03-01T03:02:03.331Z,58.94
2019-03-01T03:02:53.386Z,58.87
2019-03-01T03:03:43.634Z,59.08
2019-03-01T03:04:34.616Z,59.23
2019-03-01T03:05:26.318Z,59.35
2019-03-01T03:06:24.507Z,59.74
2019-03-01T03:07:19.847Z,59.25
2019-03-01T03:08:10.163Z,59.61
2019-03-01T03:09:00.857Z,59.69
2019-03-01T03:09:51.445Z,59.91
2019-03-01T03:10:42.215Z,59.72
2019-03-01T03:11:34.358Z,59.58
2019-03-01T03:12:25.348Z,59.74
2019-03-01T03:13:16.179Z,59.46
2019-03-01T03:14:06.878Z,59.43
2019-03-01T03:14:57.363Z,59.47
2019-03-01T03:15:48.245Z,59.60
2019-03-01T03:16:38.748Z,59.38
2019-03-01T03:17:29.734Z,59.53
2019-03-01T03:18:20.691Z,59.61
2019-03-01T03:19:11.262Z,59.85
2019-03-01T03:20:03.058Z,59.64
2019-03-01T03:20:53.657Z,59.81
2019-03-01T03:21:44.323Z,59.68
2019-03-01T03:22:34.773Z,59.79
2019-03-01T03:23:25.360Z,59.77
2019-03-01T03:24:15.634Z,59.77
2019-03-01T03:25:06.872Z,59.72
2019-03-01T03:25:57.267Z,60.42
2019-03-01T03:26:48.781Z,59.92
2019-03-01T03:27:38.851Z,60.12
2019-03-01T03:28:30.014Z,59.80
2019-03-01T03:29:20.002Z,59.76
2019-03-01T03:30:11.248Z,59.92
2019-03-01T03:31:01.203Z,59.77
2019-03-01T03:31:51.424Z,59.93
2019-03-01T03:32:41.968Z,59.80
2019-03-01T03:33:32.322Z,59.77
2019-03-01T03:34:22.449Z,60.18
2019-03-01T03:35:13.911Z,60.26
2019-03-01T03:36:04.601Z,60.21
2019-03-01T03:36:54.696Z,59.88
2019-03-01T03:37:44.803Z,60.11
2019-03-01T03:38:35.089Z,60.17
2019-03-01T03:39:25.646Z,59.94
2019-03-01T03:40:16.139Z,60.12
2019-03-01T03:41:06.303Z,60.03
2019-03-01T03:41:57.022Z,60.33
2019-03-01T03:42:47.125Z,60.61
2019-03-01T03:43:37.513Z,60.33
2019-03-01T03:44:28.115Z,60.35
2019-03-01T03:45:18.452Z,60.27
2019-03-01T03:46:09.065Z,60.43
2019-03-01T03:46:59.391Z,60.56
2019-03-01T03:47:49.479Z,60.63
2019-03-01T03:48:39.429Z,60.46
2019-03-01T03:49:29.578Z,60.32
2019-03-01T03:50:20.107Z,60.45
2019-03-01T03:51:10.254Z,60.50
2019-03-01T03:52:00.386Z,60.40
2019-03-01T03:52:50.637Z,60.49
2019-03-01T03:53:40.697Z,60.51
2019-03-01T03:54:31.090Z,60.58
2019-03-01T03:55:21.322Z,60.47
2019-03-01T03:56:11.701Z,60.44
2019-03-01T03:57:02.530Z,60.45
2019-03-01T03:57:52.984Z,61.01
2019-03-01T03:58:43.386Z,60.75
2019-03-01T03:59:33.409Z,60.67
2019-03-01T04:00:23.510Z,60.55
2019-03-01T04:01:13.856Z,60.52
2019-03-01T04:02:08.325Z,60.71
2019-03-01T04:02:59.193Z,60.75
2019-03-01T04:03:49.380Z,60.60
2019-03-01T04:04:40.157Z,60.51
2019-03-01T04:05:30.407Z,60.65
2019-03-01T04:06:20.918Z,60.70
2019-03-01T04:07:11.105Z,60.66
2019-03-01T04:08:01.891Z,60.62
2019-03-01T04:08:52.760Z,60.74
2019-03-01T04:09:42.969Z,60.94
2019-03-01T04:10:33.112Z,60.87
2019-03-01T04:11:24.006Z,61.31
2019-03-01T04:12:14.087Z,62.13
2019-03-01T04:13:04.950Z,61.54
2019-03-01T04:13:55.948Z,61.24
2019-03-01T04:14:46.250Z,61.36
2019-03-01T04:15:36.979Z,61.42
2019-03-01T04:16:27.257Z,61.59
2019-03-01T04:17:18.695Z,62.03
2019-03-01T04:18:08.926Z,61.75
2019-03-01T04:18:59.349Z,61.77
2019-03-01T04:19:49.952Z,61.58
2019-03-01T04:20:40.589Z,61.53
2019-03-01T04:21:31.273Z,61.88
2019-03-01T04:22:21.725Z,61.67
2019-03-01T04:23:12.262Z,61.58
2019-03-01T04:24:02.601Z,61.69
2019-03-01T04:24:53.271Z,61.73
2019-03-01T04:25:43.583Z,61.59
2019-03-01T04:26:34.207Z,61.84
2019-03-01T04:27:24.838Z,61.93
2019-03-01T04:28:14.885Z,61.98
2019-03-01T04:29:05.100Z,61.97
2019-03-01T04:29:56.439Z,62.03
2019-03-01T04:30:47.109Z,61.93
2019-03-01T04:31:37.453Z,62.59
2019-03-01T04:32:28.168Z,62.02
2019-03-01T04:33:19.194Z,62.53
2019-03-01T04:34:09.549Z,62.68
2019-03-01T04:34:59.646Z,62.42
2019-03-01T04:35:49.821Z,62.50
2019-03-01T04:36:40.378Z,62.36
2019-03-01T04:37:31.850Z,62.52
2019-03-01T04:38:21.878Z,62.59
2019-03-01T04:39:13.638Z,62.61
2019-03-01T04:40:06.753Z,62.71
2019-03-01T04:40:55.639Z,62.74
2019-03-01T04:41:46.489Z,62.89
2019-03-01T04:42:36.858Z,62.68
2019-03-01T04:43:27.728Z,62.55
2019-03-01T04:44:18.253Z,63.23
2019-03-01T04:45:10.541Z,63.42
2019-03-01T04:46:00.810Z,63.26
2019-03-01T04:46:51.860Z,63.33
2019-03-01T04:47:42.933Z,63.06
2019-03-01T04:48:33.257Z,62.92
2019-03-01T04:49:23.487Z,63.17
2019-03-01T04:50:13.914Z,63.35
2019-03-01T04:51:04.440Z,63.06
2019-03-01T04:51:54.568Z,62.93
2019-03-01T04:52:44.834Z,63.04
2019-03-01T04:53:34.841Z,63.17
2019-03-01T04:54:25.232Z,63.11
2019-03-01T04:55:18.121Z,63.41
2019-03-01T04:56:08.775Z,64.05
2019-03-01T04:56:58.779Z,64.52
2019-03-01T04:57:48.875Z,64.45
2019-03-01T04:58:39.183Z,64.58
2019-03-01T04:59:29.364Z,64.61
2019-03-01T05:00:21.209Z,64.95
2019-03-01T05:01:12.062Z,65.06
2019-03-01T05:02:02.834Z,65.00
2019-03-01T05:02:54.012Z,65.26
2019-03-01T05:03:44.262Z,65.84
2019-03-01T05:04:35.536Z,66.15
2019-03-01T05:05:25.755Z,66.16
2019-03-01T05:06:15.899Z,66.23
2019-03-01T05:07:06.688Z,67.75
2019-03-01T05:07:57.283Z,66.94
2019-03-01T05:08:48.531Z,67.56
2019-03-01T05:09:38.994Z,67.26
2019-03-01T05:10:29.803Z,67.71
2019-03-01T05:11:20.243Z,67.10
2019-03-01T05:12:11.382Z,67.19
2019-03-01T05:13:01.664Z,67.11
2019-03-01T05:13:51.889Z,67.08
2019-03-01T05:14:43.162Z,67.98
2019-03-01T05:15:33.530Z,67.89
2019-03-01T05:16:23.916Z,68.15
2019-03-01T05:17:14.890Z,67.91
2019-03-01T05:18:05.559Z,67.96
2019-03-01T05:18:56.572Z,67.71
2019-03-01T05:19:46.808Z,67.63
2019-03-01T05:20:37.844Z,67.64
2019-03-01T05:21:28.999Z,68.63
2019-03-01T05:22:19.288Z,67.82
2019-03-01T05:23:09.859Z,67.50
2019-03-01T05:24:00.265Z,67.69
2019-03-01T05:24:50.270Z,68.04
2019-03-01T05:25:40.949Z,67.69
2019-03-01T05:26:31.546Z,67.53
2019-03-01T05:27:21.967Z,67.54
2019-03-01T05:28:12.466Z,67.82
2019-03-01T05:29:03.209Z,67.53
2019-03-01T05:29:53.388Z,67.65
2019-03-01T05:30:43.556Z,67.93
2019-03-01T05:31:34.062Z,67.51
2019-03-01T05:32:25.266Z,67.81
2019-03-01T05:33:16.250Z,67.84
2019-03-01T05:34:07.038Z,68.50
2019-03-01T05:34:57.188Z,68.15
2019-03-01T05:35:47.695Z,68.19
2019-03-01T05:36:37.983Z,67.79
2019-03-01T05:37:28.670Z,67.93
2019-03-01T05:38:21.816Z,68.42
2019-03-01T05:39:10.066Z,68.35
2019-03-01T05:40:00.781Z,67.66
2019-03-01T05:40:51.108Z,67.37
2019-03-01T05:41:41.125Z,67.79
2019-03-01T05:42:31.696Z,67.65
2019-03-01T05:43:22.291Z,68.03
2019-03-01T05:44:13.063Z,67.89
2019-03-01T05:45:04.079Z,68.00
2019-03-01T05:45:54.763Z,67.90
2019-03-01T05:46:45.814Z,67.68
2019-03-01T05:47:36.150Z,67.45
2019-03-01T05:48:26.284Z,67.36
2019-03-01T05:49:16.986Z,67.85
2019-03-01T05:50:08.445Z,67.42
2019-03-01T05:50:58.795Z,67.24
2019-03-01T05:51:49.610Z,67.61
2019-03-01T05:52:40.128Z,67.72
2019-03-01T05:53:30.618Z,67.89
2019-03-01T05:54:21.295Z,67.64
2019-03-01T05:55:11.731Z,68.67
2019-03-01T05:56:02.299Z,69.30
2019-03-01T05:56:53.369Z,68.78
2019-03-01T05:58:25.556Z,68.34
2019-03-01T05:59:22.012Z,68.12
2019-03-01T06:00:13.146Z,71.30
2019-03-01T06:01:11.036Z,70.57
2019-03-01T06:02:39.561Z,69.98
2019-03-01T06:04:09.003Z,69.84
2019-03-01T06:05:02.641Z,69.14
2019-03-01T06:05:52.770Z,68.73
2019-03-01T06:07:24.966Z,68.58
2019-03-01T06:09:16.960Z,68.34
2019-03-01T06:10:34.490Z,68.02
2019-03-01T06:12:09.557Z,70.13
2019-03-01T06:13:42.231Z,70.17
2019-03-01T06:14:52.742Z,71.57
2019-03-01T06:16:20.385Z,70.80
2019-03-01T06:18:11.551Z,69.79
2019-03-01T06:19:14.000Z,68.94
2019-03-01T06:20:41.198Z,69.01
2019-03-01T06:22:13.299Z,69.50
2019-03-01T06:23:28.237Z,69.34
2019-03-01T06:24:29.465Z,68.64
2019-03-01T06:26:14.234Z,67.72
2019-03-01T06:27:41.428Z,67.71
2019-03-01T06:29:27.666Z,67.71
2019-03-01T06:31:14.559Z,67.76
2019-03-01T06:32:47.059Z,66.39
2019-03-01T06:34:10.074Z,66.72
2019-03-01T06:35:37.988Z,66.70
2019-03-01T06:36:38.970Z,66.98
2019-03-01T06:38:55.285Z,66.65
2019-03-01T06:40:21.172Z,66.64
2019-03-01T06:41:37.183Z,66.09
2019-03-01T06:42:48.349Z,65.12
2019-03-01T06:44:00.627Z,65.28
2019-03-01T06:46:00.902Z,65.22
2019-03-01T06:47:32.531Z,65.07
2019-03-01T06:48:40.776Z,65.11
2019-03-01T06:49:53.052Z,65.14
2019-03-01T06:50:53.431Z,64.87
2019-03-01T06:51:43.953Z,64.34
2019-03-01T06:52:34.521Z,65.17
2019-03-01T06:53:25.387Z,64.63
2019-03-01T06:54:16.494Z,64.31
2019-03-01T06:55:08.471Z,64.43
2019-03-01T06:56:04.439Z,64.58
2019-03-01T06:56:54.696Z,64.96
2019-03-01T06:57:44.716Z,64.43
2019-03-01T06:58:40.859Z,64.35
2019-03-01T06:59:31.396Z,64.02
2019-03-01T07:00:21.533Z,64.00
2019-03-01T07:01:18.637Z,63.91
2019-03-01T07:02:09.601Z,63.57
2019-03-01T07:02:59.836Z,63.38
2019-03-01T07:03:57.004Z,64.17
2019-03-01T07:04:47.227Z,64.21
2019-03-01T07:05:38.415Z,64.00
2019-03-01T07:06:28.662Z,63.72
2019-03-01T07:07:20.267Z,63.56
2019-03-01T07:08:10.651Z,63.79
2019-03-01T07:09:01.929Z,64.01
2019-03-01T07:09:52.526Z,63.82
2019-03-01T07:10:43.198Z,63.79
2019-03-01T07:11:35.087Z,63.65
2019-03-01T07:12:25.793Z,63.62
2019-03-01T07:13:15.688Z,63.88
2019-03-01T07:14:07.045Z,63.73
2019-03-01T07:14:58.155Z,63.57
2019-03-01T07:15:48.369Z,63.58
2019-03-01T07:16:39.556Z,63.94
2019-03-01T07:17:30.055Z,63.83
2019-03-01T07:18:20.068Z,63.82
2019-03-01T07:19:10.769Z,63.99
2019-03-01T07:20:01.210Z,64.14
2019-03-01T07:20:51.991Z,64.67
2019-03-01T07:21:42.351Z,64.59
2019-03-01T07:22:32.839Z,64.84
2019-03-01T07:23:23.050Z,64.74
2019-03-01T07:24:13.374Z,64.71
2019-03-01T07:25:03.585Z,65.51
2019-03-01T07:25:54.927Z,65.35
2019-03-01T07:26:44.527Z,65.93
2019-03-01T07:27:34.743Z,66.00
2019-03-01T07:28:24.957Z,66.14
2019-03-01T07:29:15.603Z,65.84
2019-03-01T07:30:06.291Z,66.32
2019-03-01T07:30:56.639Z,66.00
2019-03-01T07:31:46.811Z,66.01
2019-03-01T07:32:37.165Z,66.18
2019-03-01T07:33:27.449Z,66.56
2019-03-01T07:34:18.019Z,67.39
2019-03-01T07:35:08.457Z,68.08
2019-03-01T07:35:58.533Z,68.55
2019-03-01T07:36:48.684Z,69.03
2019-03-01T07:37:39.150Z,69.18
2019-03-01T07:38:29.264Z,69.31
2019-03-01T07:39:19.691Z,69.36
2019-03-01T07:40:10.205Z,70.54
2019-03-01T07:41:00.799Z,71.07
2019-03-01T07:41:51.940Z,71.17
2019-03-01T07:42:42.748Z,71.10
2019-03-01T07:43:33.387Z,70.80
2019-03-01T07:44:23.607Z,70.74
2019-03-01T07:45:14.168Z,71.13
2019-03-01T07:46:04.555Z,71.11
2019-03-01T07:46:54.838Z,71.67
2019-03-01T07:47:45.053Z,71.07
2019-03-01T07:48:36.068Z,71.44
2019-03-01T07:49:26.485Z,71.66
2019-03-01T07:50:17.333Z,72.07
2019-03-01T07:51:08.349Z,71.91
2019-03-01T07:51:58.219Z,71.78
2019-03-01T07:52:48.992Z,72.02
2019-03-01T07:53:41.827Z,71.91
2019-03-01T07:54:30.383Z,71.89
2019-03-01T07:55:20.513Z,71.24
2019-03-01T07:56:11.014Z,71.39
2019-03-01T07:57:01.503Z,71.58
2019-03-01T07:57:51.714Z,71.75
2019-03-01T07:58:42.136Z,72.19
2019-03-01T07:59:37.936Z,71.77
2019-03-01T08:00:23.157Z,72.08
2019-03-01T08:01:13.292Z,72.47
2019-03-01T08:02:04.077Z,72.20
2019-03-01T08:02:53.916Z,72.37
2019-03-01T08:03:49.298Z,73.08
2019-03-01T08:04:34.781Z,73.00
2019-03-01T08:05:24.708Z,73.06
2019-03-01T08:06:15.293Z,72.82
2019-03-01T08:07:05.586Z,73.07
2019-03-01T08:07:56.619Z,73.13
2019-03-01T08:08:46.079Z,72.99
2019-03-01T08:09:37.543Z,72.92
2019-03-01T08:10:28.085Z,72.95
2019-03-01T08:11:18.641Z,73.45
2019-03-01T08:12:09.820Z,73.04
2019-03-01T08:13:00.099Z,73.42
2019-03-01T08:13:53.142Z,73.60
2019-03-01T08:14:41.370Z,73.09
2019-03-01T08:15:32.156Z,72.78
2019-03-01T08:16:22.489Z,72.93
2019-03-01T08:17:13.398Z,73.14
2019-03-01T08:18:04.635Z,73.25
2019-03-01T08:18:55.003Z,73.03
2019-03-01T08:19:45.775Z,72.92
2019-03-01T08:20:35.659Z,72.60
2019-03-01T08:21:26.351Z,72.37
2019-03-01T08:22:16.719Z,71.62
2019-03-01T08:23:06.853Z,71.38
2019-03-01T08:23:57.526Z,71.22
2019-03-01T08:24:48.652Z,70.77
2019-03-01T08:25:39.902Z,70.63
2019-03-01T08:26:34.072Z,70.12
2019-03-01T08:27:21.534Z,70.12
2019-03-01T08:28:13.312Z,70.32
2019-03-01T08:29:03.603Z,70.27
2019-03-01T08:29:53.692Z,70.15
2019-03-01T08:30:45.729Z,69.52
2019-03-01T08:31:34.137Z,69.39
2019-03-01T08:32:27.433Z,69.28
2019-03-01T08:33:15.057Z,69.70
2019-03-01T08:34:05.060Z,68.79
2019-03-01T08:34:56.007Z,68.56
2019-03-01T08:35:46.700Z,68.99
2019-03-01T08:36:38.689Z,68.39
2019-03-01T08:37:28.659Z,68.86
2019-03-01T08:38:19.256Z,69.17
2019-03-01T08:39:09.539Z,68.24
2019-03-01T08:39:59.859Z,68.47
2019-03-01T08:40:51.464Z,68.27
2019-03-01T08:41:42.878Z,68.12
2019-03-01T08:42:36.383Z,68.44
2019-03-01T08:43:23.469Z,68.88
2019-03-01T08:44:13.682Z,68.51
2019-03-01T08:45:04.560Z,69.00
2019-03-01T08:45:55.628Z,68.58
2019-03-01T08:46:47.333Z,68.42
2019-03-01T08:47:37.762Z,68.52
2019-03-01T08:48:30.540Z,68.77
2019-03-01T08:49:18.338Z,68.67
2019-03-01T08:50:10.403Z,68.55
2019-03-01T08:51:01.364Z,68.76
2019-03-01T08:51:52.661Z,69.14
2019-03-01T08:52:43.717Z,68.99
2019-03-01T08:53:34.225Z,69.08
2019-03-01T08:54:26.469Z,68.50
2019-03-01T08:55:16.883Z,68.58
2019-03-01T08:56:10.896Z,68.71
2019-03-01T08:56:58.454Z,68.93
2019-03-01T08:57:48.789Z,68.51
2019-03-01T08:58:41.328Z,68.52
2019-03-01T08:59:29.363Z,68.24
2019-03-01T09:00:23.094Z,68.52
2019-03-01T09:01:13.180Z,68.24
2019-03-01T09:02:04.433Z,67.75
2019-03-01T09:02:57.130Z,67.80
2019-03-01T09:04:00.447Z,68.01
2019-03-01T09:04:51.373Z,67.74
2019-03-01T09:05:41.781Z,67.97
2019-03-01T09:06:32.519Z,68.24
2019-03-01T09:07:22.913Z,67.65
2019-03-01T09:08:13.638Z,67.87
2019-03-01T09:09:05.737Z,67.58
2019-03-01T09:09:57.175Z,67.76
2019-03-01T09:10:47.549Z,67.64
2019-03-01T09:11:41.735Z,67.49
2019-03-01T09:12:29.322Z,67.27
2019-03-01T09:13:20.577Z,67.50
2019-03-01T09:14:10.757Z,67.81
2019-03-01T09:15:04.504Z,67.90
2019-03-01T09:15:52.270Z,67.84
2019-03-01T09:16:42.939Z,67.72
2019-03-01T09:17:33.290Z,67.99
2019-03-01T09:18:23.414Z,67.98
2019-03-01T09:19:14.439Z,68.23
2019-03-01T09:20:05.392Z,67.79
2019-03-01T09:21:04.410Z,68.26
2019-03-01T09:21:50.150Z,67.98
2019-03-01T09:22:36.903Z,68.21
2019-03-01T09:23:27.662Z,67.76
2019-03-01T09:24:18.231Z,67.63
2019-03-01T09:25:09.209Z,67.86
2019-03-01T09:25:59.269Z,67.87
2019-03-01T09:26:51.670Z,67.55
2019-03-01T09:27:40.578Z,67.51
2019-03-01T09:28:32.767Z,67.98
2019-03-01T09:29:20.729Z,68.02
2019-03-01T09:30:16.954Z,68.19
2019-03-01T09:31:07.563Z,68.37
2019-03-01T09:31:58.601Z,68.22
2019-03-01T09:32:48.182Z,68.11
2019-03-01T09:33:38.573Z,68.11
2019-03-01T09:34:32.002Z,67.71
2019-03-01T09:35:43.162Z,68.03
2019-03-01T09:36:44.365Z,68.03
2019-03-01T09:37:35.064Z,67.91
2019-03-01T09:38:25.371Z,68.28
2019-03-01T09:39:18.169Z,67.74
2019-03-01T09:40:07.015Z,68.14
2019-03-01T09:40:57.705Z,68.42
2019-03-01T09:41:48.530Z,68.02
2019-03-01T09:42:38.863Z,67.81
2019-03-01T09:43:29.230Z,68.04
2019-03-01T09:44:20.041Z,67.97
2019-03-01T09:45:13.545Z,67.96
2019-03-01T09:46:01.367Z,67.98
2019-03-01T09:46:51.718Z,67.79
2019-03-01T09:47:42.074Z,67.66
2019-03-01T09:48:32.201Z,68.09
2019-03-01T09:49:24.430Z,67.45
2019-03-01T09:50:13.288Z,67.76
2019-03-01T09:51:07.289Z,67.99
2019-03-01T09:51:55.456Z,68.13
2019-03-01T09:52:46.794Z,67.77
2019-03-01T09:53:36.780Z,67.96
2019-03-01T09:54:27.611Z,68.14
2019-03-01T09:55:19.329Z,68.37
2019-03-01T09:56:09.756Z,68.17
2019-03-01T09:56:59.715Z,67.84
2019-03-01T09:57:50.300Z,67.84
2019-03-01T09:58:40.827Z,67.40
2019-03-01T09:59:31.623Z,67.09
2019-03-01T10:00:23.248Z,66.61
2019-03-01T10:01:15.317Z,66.45
2019-03-01T10:02:05.569Z,65.94
2019-03-01T10:02:55.900Z,66.34
2019-03-01T10:03:47.861Z,66.15
2019-03-01T10:04:38.027Z,65.91
2019-03-01T10:05:28.145Z,65.95
2019-03-01T10:06:18.823Z,65.55
2019-03-01T10:07:09.425Z,65.59
2019-03-01T10:07:59.352Z,65.60
2019-03-01T10:08:49.951Z,66.01
2019-03-01T10:09:43.276Z,65.58
2019-03-01T10:10:34.033Z,65.94
2019-03-01T10:11:24.468Z,65.69
2019-03-01T10:12:14.707Z,65.72
2019-03-01T10:13:05.688Z,65.58
2019-03-01T10:13:56.597Z,66.06
2019-03-01T10:14:47.143Z,66.18
2019-03-01T10:15:37.650Z,66.18
2019-03-01T10:16:28.731Z,66.36
2019-03-01T10:17:18.983Z,66.71
2019-03-01T10:18:09.560Z,66.23
2019-03-01T10:19:00.203Z,66.03
2019-03-01T10:19:51.135Z,66.07
2019-03-01T10:20:41.717Z,66.03
2019-03-01T10:21:32.919Z,65.66
2019-03-01T10:22:23.553Z,66.21
2019-03-01T10:23:14.292Z,66.16
2019-03-01T10:24:05.461Z,65.98
2019-03-01T10:24:55.960Z,65.61
2019-03-01T10:25:46.510Z,65.75
2019-03-01T10:26:37.089Z,65.66
2019-03-01T10:27:27.739Z,65.31
2019-03-01T10:28:19.020Z,65.37
2019-03-01T10:29:09.275Z,65.12
2019-03-01T10:30:00.105Z,65.15
2019-03-01T10:30:50.584Z,65.68
2019-03-01T10:31:41.292Z,65.42
2019-03-01T10:32:31.515Z,65.06
2019-03-01T10:33:22.173Z,65.32
2019-03-01T10:34:12.396Z,65.35
2019-03-01T10:35:03.002Z,65.51
2019-03-01T10:35:54.395Z,65.42
2019-03-01T10:36:46.095Z,65.30
2019-03-01T10:37:36.813Z,65.05
2019-03-01T10:38:30.002Z,65.02
2019-03-01T10:39:21.615Z,65.11
2019-03-01T10:40:13.719Z,64.90
2019-03-01T10:41:04.489Z,64.31
2019-03-01T10:41:55.206Z,64.05
2019-03-01T10:42:46.963Z,64.31
2019-03-01T10:43:37.941Z,64.89
2019-03-01T10:44:29.462Z,64.99
2019-03-01T10:45:21.453Z,65.11
2019-03-01T10:46:11.763Z,64.66
2019-03-01T10:47:02.511Z,64.99
2019-03-01T10:47:53.222Z,64.98
2019-03-01T10:48:44.968Z,65.03
2019-03-01T10:49:35.262Z,65.66
2019-03-01T10:50:25.710Z,65.57
2019-03-01T10:51:16.951Z,65.66
2019-03-01T10:52:07.207Z,65.32
2019-03-01T10:52:58.979Z,65.50
2019-03-01T10:53:49.558Z,65.55
2019-03-01T10:54:40.833Z,65.35
2019-03-01T10:55:31.108Z,65.54
2019-03-01T10:56:21.436Z,65.01
2019-03-01T10:57:11.721Z,64.83
2019-03-01T10:58:02.065Z,65.22
2019-03-01T10:58:52.549Z,65.09
2019-03-01T10:59:43.229Z,65.27
2019-03-01T11:00:34.569Z,65.33
2019-03-01T11:01:24.848Z,64.97
2019-03-01T11:02:15.312Z,65.13
2019-03-01T11:03:05.578Z,64.85
2019-03-01T11:03:56.274Z,64.79
2019-03-01T11:04:46.639Z,64.90
2019-03-01T11:05:38.445Z,64.53
2019-03-01T11:06:28.272Z,64.67
2019-03-01T11:07:18.683Z,64.08
2019-03-01T11:08:09.009Z,64.06
2019-03-01T11:09:00.027Z,63.88
2019-03-01T11:09:50.065Z,64.10
2019-03-01T11:10:40.786Z,64.39
2019-03-01T11:11:31.637Z,64.58
2019-03-01T11:12:22.382Z,64.65
2019-03-01T11:13:12.607Z,64.41
2019-03-01T11:14:04.074Z,64.42
2019-03-01T11:14:54.332Z,64.60
2019-03-01T11:15:44.671Z,64.06
2019-03-01T11:16:34.735Z,63.97
2019-03-01T11:17:25.323Z,63.65
2019-03-01T11:18:15.555Z,63.75
2019-03-01T11:19:05.815Z,63.88
2019-03-01T11:19:56.204Z,64.23
2019-03-01T11:20:46.975Z,63.99
2019-03-01T11:21:37.922Z,63.64
2019-03-01T11:22:28.560Z,63.97
2019-03-01T11:23:19.491Z,63.87
2019-03-01T11:24:10.036Z,63.92
2019-03-01T11:25:00.514Z,63.80
2019-03-01T11:25:51.486Z,64.03
2019-03-01T11:26:42.513Z,64.11
2019-03-01T11:27:33.051Z,64.17
2019-03-01T11:28:23.430Z,64.60
2019-03-01T11:29:13.968Z,64.64
2019-03-01T11:30:05.215Z,64.61
2019-03-01T11:30:55.761Z,64.93
2019-03-01T11:31:46.024Z,65.06